Time;durP1;ratioP1;P1;durP2;ratioP2;P2;SDS_P1;SDS_P2;PMS_P1;PMS_P2;Temp;Humidity;BMP_temperature;BMP_pressure;BME280_temperature;BME280_humidity;BME280_pressure;Samples;Min_cycle;Max_cycle;Signal;HPM_P1;HPM_P2
2024/03/05 00:00:58;;;;;;;0.30;0.30;;;;;;;6.85;100.00;98934.63;5027762;28;20037;-59
2024/03/05 00:03:25;;;;;;;0.30;0.30;;;;;;;6.86;100.00;98927.44;5038028;28;20053;-59
2024/03/05 00:05:54;;;;;;;0.32;0.32;;;;;;;6.87;100.00;98926.44;5035674;28;20128;-59
2024/03/05 00:08:21;;;;;;;0.30;0.30;;;;;;;6.72;100.00;98924.16;5031159;28;20662;-58
2024/03/05 00:10:48;;;;;;;0.38;0.38;;;;;;;6.72;100.00;98926.81;5021618;28;20040;-58
2024/03/05 00:13:15;;;;;;;0.30;0.30;;;;;;;6.70;100.00;98921.72;5033171;28;20116;-58
2024/03/05 00:15:45;;;;;;;0.30;0.30;;;;;;;6.53;100.00;98927.88;5033135;28;20049;-59
2024/03/05 00:18:13;;;;;;;0.20;0.20;;;;;;;6.70;100.00;98924.38;5027716;28;20037;-58
2024/03/05 00:20:40;;;;;;;0.30;0.30;;;;;;;6.59;100.00;98929.63;5025284;28;20098;-58
2024/03/05 00:23:09;;;;;;;0.38;0.38;;;;;;;6.69;100.00;98925.44;5031914;28;20148;-58
2024/03/05 00:25:36;;;;;;;0.30;0.30;;;;;;;6.64;100.00;98930.63;5036301;28;20040;-59
2024/03/05 00:28:04;;;;;;;0.40;0.40;;;;;;;6.45;100.00;98934.31;5036705;28;20069;-58
2024/03/05 00:30:31;;;;;;;0.40;0.40;;;;;;;6.34;100.00;98927.06;5032478;28;20053;-58
2024/03/05 00:33:01;;;;;;;0.40;0.40;;;;;;;6.42;100.00;98926.78;5029567;28;20064;-59
2024/03/05 00:35:28;;;;;;;0.20;0.20;;;;;;;6.62;100.00;98924.69;5036647;28;20045;-59
2024/03/05 00:37:55;;;;;;;0.30;0.30;;;;;;;6.58;100.00;98926.16;5037683;28;20045;-59
2024/03/05 00:40:24;;;;;;;0.40;0.40;;;;;;;6.65;100.00;98929.56;5026656;28;20132;-59
2024/03/05 00:42:51;;;;;;;0.40;0.40;;;;;;;6.55;100.00;98933.81;5038943;28;20045;-59
2024/03/05 00:45:21;;;;;;;0.30;0.30;;;;;;;6.46;100.00;98930.59;5032594;28;20036;-59
2024/03/05 00:47:48;;;;;;;0.30;0.30;;;;;;;6.45;100.00;98931.66;5032793;28;20057;-59
2024/03/05 00:50:15;;;;;;;0.30;0.30;;;;;;;6.46;100.00;98936.78;5036064;28;20103;-58
2024/03/05 00:52:42;;;;;;;0.30;0.30;;;;;;;6.56;100.00;98938.88;5029971;28;20045;-58
2024/03/05 00:55:09;;;;;;;0.40;0.40;;;;;;;6.60;100.00;98934.75;5036612;28;20128;-58
2024/03/05 00:57:38;;;;;;;0.30;0.30;;;;;;;6.58;100.00;98938.66;5029160;28;20057;-58
2024/03/05 01:00:07;;;;;;;0.20;0.20;;;;;;;6.55;100.00;98941.78;5029120;28;20037;-59
2024/03/05 01:02:34;;;;;;;0.30;0.30;;;;;;;6.41;100.00;98933.94;5036849;28;20107;-58
2024/03/05 01:05:07;;;;;;;0.38;0.38;;;;;;;6.30;100.00;98931.22;5032157;28;20054;-59
2024/03/05 01:07:34;;;;;;;0.40;0.40;;;;;;;6.40;100.00;98923.53;5029118;28;20576;-58
2024/03/05 01:10:01;;;;;;;0.40;0.40;;;;;;;6.41;100.00;98927.81;5027750;28;20045;-59
2024/03/05 01:12:28;;;;;;;0.40;0.40;;;;;;;6.43;100.00;98925.75;5027218;28;20045;-58
2024/03/05 01:14:57;;;;;;;0.40;0.40;;;;;;;6.53;100.00;98925.22;5025624;28;20128;-58
2024/03/05 01:17:26;;;;;;;0.40;0.40;;;;;;;6.45;100.00;98926.34;5032862;28;20443;-58
2024/03/05 01:19:54;;;;;;;0.30;0.30;;;;;;;6.75;100.00;98928.22;5035747;28;20048;-58
2024/03/05 01:22:21;;;;;;;0.30;0.30;;;;;;;6.69;100.00;98929.94;5033386;28;20033;-58
2024/03/05 01:24:49;;;;;;;0.45;0.45;;;;;;;6.70;100.00;98927.03;5031975;28;20111;-59
2024/03/05 01:27:18;;;;;;;0.20;0.20;;;;;;;6.68;100.00;98931.78;5029604;28;20056;-58
2024/03/05 01:29:47;;;;;;;0.30;0.30;;;;;;;6.74;100.00;98926.59;5025705;28;20041;-59
2024/03/05 01:32:19;;;;;;;0.30;0.30;;;;;;;6.76;100.00;98929.84;5033554;28;20048;-59
2024/03/05 01:34:48;;;;;;;0.22;0.22;;;;;;;6.75;100.00;98929.03;5036351;28;20040;-59
2024/03/05 01:37:15;;;;;;;0.30;0.30;;;;;;;6.71;100.00;98925.19;5029197;28;20415;-58
2024/03/05 01:39:42;;;;;;;0.38;0.38;;;;;;;6.54;100.00;98919.69;5038799;28;20033;-58
2024/03/05 01:42:09;;;;;;;0.38;0.38;;;;;;;6.43;100.00;98915.09;5031091;28;20083;-58
2024/03/05 01:44:37;;;;;;;0.30;0.30;;;;;;;6.33;100.00;98920.13;5030142;28;20474;-58
2024/03/05 01:47:04;;;;;;;0.30;0.30;;;;;;;6.52;100.00;98921.75;5037204;28;20539;-59
2024/03/05 01:49:33;;;;;;;0.30;0.30;;;;;;;6.48;100.00;98912.56;5035549;28;20053;-59
2024/03/05 01:52:01;;;;;;;0.20;0.20;;;;;;;6.53;100.00;98910.03;5032855;28;20072;-59
2024/03/05 01:54:29;;;;;;;0.30;0.30;;;;;;;6.52;100.00;98916.41;5035189;28;20788;-57
2024/03/05 01:56:57;;;;;;;0.30;0.30;;;;;;;6.54;100.00;98924.16;5031538;28;20059;-59
2024/03/05 01:59:25;;;;;;;0.30;0.30;;;;;;;6.61;100.00;98917.72;5033627;28;20689;-58
2024/03/05 02:01:52;;;;;;;0.40;0.40;;;;;;;6.63;100.00;98920.97;5035324;28;20045;-58
2024/03/05 02:04:19;;;;;;;0.35;0.35;;;;;;;6.65;100.00;98921.56;5028972;28;20143;-58
2024/03/05 02:06:47;;;;;;;0.38;0.38;;;;;;;6.70;100.00;98916.38;5041359;28;20135;-58
2024/03/05 02:09:15;;;;;;;0.30;0.30;;;;;;;6.66;100.00;98909.91;5036855;28;20056;-58
2024/03/05 02:11:42;;;;;;;0.40;0.40;;;;;;;6.69;100.00;98916.63;5023807;28;20036;-59
2024/03/05 02:14:09;;;;;;;0.22;0.22;;;;;;;6.63;100.00;98907.66;5034000;28;20049;-58
2024/03/05 02:16:36;;;;;;;0.40;0.40;;;;;;;6.49;100.00;98911.56;5032743;28;20045;-59
2024/03/05 02:19:04;;;;;;;0.30;0.30;;;;;;;6.32;100.00;98907.88;5030569;28;20123;-59
2024/03/05 02:21:32;;;;;;;0.40;0.40;;;;;;;6.55;100.00;98907.16;5032999;28;20052;-58
2024/03/05 02:23:59;;;;;;;0.30;0.30;;;;;;;6.69;100.00;98905.97;5029609;28;20863;-58
2024/03/05 02:26:28;;;;;;;0.50;0.50;;;;;;;6.67;100.00;98911.50;5031504;28;20123;-59
2024/03/05 02:28:57;;;;;;;0.40;0.40;;;;;;;6.68;100.00;98918.44;5030979;28;20040;-58
2024/03/05 02:31:24;;;;;;;0.30;0.30;;;;;;;6.68;100.00;98913.13;5029949;28;20049;-58
2024/03/05 02:33:53;;;;;;;0.30;0.30;;;;;;;6.66;100.00;98909.06;5028079;28;20119;-59
2024/03/05 02:36:22;;;;;;;0.30;0.30;;;;;;;6.45;100.00;98913.03;5034770;28;20072;-59
2024/03/05 02:38:51;;;;;;;0.30;0.30;;;;;;;6.41;100.00;98912.63;5026589;28;20103;-59
2024/03/05 02:41:18;;;;;;;0.40;0.40;;;;;;;6.35;100.00;98910.06;5021991;28;20077;-58
2024/03/05 02:43:45;;;;;;;0.30;0.30;;;;;;;6.26;100.00;98915.69;5029881;28;20131;-57
2024/03/05 02:46:14;;;;;;;0.50;0.50;;;;;;;6.31;100.00;98909.69;5029198;28;20045;-57
2024/03/05 02:48:42;;;;;;;0.40;0.40;;;;;;;6.28;100.00;98912.81;5026065;28;20041;-57
2024/03/05 02:51:09;;;;;;;0.35;0.35;;;;;;;6.21;100.00;98904.88;5029845;28;20069;-57
2024/03/05 02:53:36;;;;;;;0.50;0.50;;;;;;;6.32;100.00;98910.53;5027745;28;20104;-58
2024/03/05 02:56:05;;;;;;;0.35;0.35;;;;;;;6.28;100.00;98901.34;5030643;28;20590;-58
2024/03/05 02:58:33;;;;;;;0.40;0.40;;;;;;;6.30;100.00;98910.75;5031809;28;20150;-58
2024/03/05 03:01:03;;;;;;;0.40;0.40;;;;;;;6.54;100.00;98903.69;5033439;28;20048;-57
2024/03/05 03:03:30;;;;;;;0.40;0.40;;;;;;;6.59;100.00;98903.00;5027173;28;20095;-57
2024/03/05 03:05:58;;;;;;;0.40;0.40;;;;;;;6.66;100.00;98901.91;5030946;28;20042;-58
2024/03/05 03:08:25;;;;;;;0.30;0.30;;;;;;;6.57;100.00;98900.59;5031391;28;20123;-57
2024/03/05 03:10:52;;;;;;;0.40;0.40;;;;;;;6.48;100.00;98904.59;5030236;28;20055;-58
2024/03/05 03:13:21;;;;;;;0.35;0.35;;;;;;;6.53;100.00;98899.41;5028034;28;20036;-57
2024/03/05 03:15:49;;;;;;;0.40;0.40;;;;;;;6.57;100.00;98903.25;5028438;28;20052;-58
2024/03/05 03:18:16;;;;;;;0.30;0.30;;;;;;;6.59;100.00;98905.66;5023308;28;20045;-58
2024/03/05 03:20:43;;;;;;;0.30;0.30;;;;;;;6.58;100.00;98912.03;5029176;28;20041;-57
2024/03/05 03:23:10;;;;;;;0.30;0.30;;;;;;;6.63;100.00;98912.19;5025269;28;20136;-58
2024/03/05 03:25:40;;;;;;;0.30;0.30;;;;;;;6.72;100.00;98912.69;5027306;28;20135;-57
2024/03/05 03:28:10;;;;;;;;;;;;;;;6.72;100.00;98924.16;5031658;28;20498;-58
2024/03/05 03:30:39;;;;;;;0.40;0.40;;;;;;;6.65;100.00;98918.91;5027806;28;19924;-58
2024/03/05 03:33:06;;;;;;;0.35;0.35;;;;;;;6.62;100.00;98921.22;5029681;28;20059;-58
2024/03/05 03:35:34;;;;;;;0.30;0.30;;;;;;;6.58;100.00;98926.16;5035550;28;20049;-58
2024/03/05 03:38:03;;;;;;;0.38;0.38;;;;;;;6.55;100.00;98926.63;5024395;28;20460;-58
2024/03/05 03:40:33;;;;;;;0.30;0.30;;;;;;;6.47;100.00;98929.59;5036236;28;20052;-58
2024/03/05 03:43:03;;;;;;;0.40;0.40;;;;;;;6.40;100.00;98931.50;5033550;28;20059;-58
2024/03/05 03:45:32;;;;;;;0.40;0.40;;;;;;;6.44;100.00;98927.34;5034673;28;20072;-58
2024/03/05 03:48:02;;;;;;;0.40;0.40;;;;;;;6.45;100.00;98923.66;5027923;28;20100;-58
2024/03/05 03:50:30;;;;;;;0.30;0.30;;;;;;;6.52;100.00;98918.28;4992704;28;1207858;-59
2024/03/05 03:52:58;;;;;;;0.40;0.40;;;;;;;6.56;100.00;98928.22;5035286;28;20894;-58
2024/03/05 03:55:26;;;;;;;0.40;0.40;;;;;;;6.53;100.00;98930.53;5027246;28;20042;-58
2024/03/05 03:57:54;;;;;;;0.30;0.30;;;;;;;6.55;100.00;98931.13;5023782;28;20519;-58
2024/03/05 04:00:23;;;;;;;0.40;0.40;;;;;;;6.54;100.00;98930.34;5028115;28;20052;-58
2024/03/05 04:02:50;;;;;;;0.30;0.30;;;;;;;6.48;100.00;98933.88;5025475;28;20423;-58
2024/03/05 04:05:18;;;;;;;0.32;0.32;;;;;;;6.50;100.00;98936.31;5031687;28;20076;-58
2024/03/05 04:07:46;;;;;;;0.30;0.30;;;;;;;6.50;100.00;98946.97;5035426;28;20049;-57
2024/03/05 04:10:13;;;;;;;0.38;0.38;;;;;;;6.35;100.00;98944.69;5024800;28;20041;-58
2024/03/05 04:12:40;;;;;;;0.30;0.30;;;;;;;6.36;100.00;98940.97;5036028;28;20056;-57
2024/03/05 04:15:08;;;;;;;0.30;0.30;;;;;;;6.36;100.00;98935.66;5030178;28;20042;-58
2024/03/05 04:17:37;;;;;;;0.30;0.30;;;;;;;6.33;100.00;98941.41;5027145;28;20046;-58
2024/03/05 04:20:05;;;;;;;0.30;0.30;;;;;;;6.36;100.00;98949.75;5025881;28;20234;-58
2024/03/05 04:22:34;;;;;;;0.30;0.30;;;;;;;6.61;100.00;98946.22;5029114;28;20056;-58
2024/03/05 04:25:02;;;;;;;0.30;0.30;;;;;;;6.46;100.00;98949.25;5028358;28;20049;-59
2024/03/05 04:27:30;;;;;;;0.40;0.40;;;;;;;6.42;100.00;98945.41;5029853;28;20037;-58
2024/03/05 04:29:59;;;;;;;0.35;0.35;;;;;;;6.45;100.00;98944.97;5019694;28;20080;-58
2024/03/05 04:32:27;;;;;;;0.30;0.30;;;;;;;6.50;100.00;98947.78;5030910;28;20055;-58
2024/03/05 04:35:00;;;;;;;0.20;0.20;;;;;;;6.55;100.00;98947.13;5029771;28;20052;-58
2024/03/05 04:37:29;;;;;;;0.40;0.40;;;;;;;6.47;100.00;98943.72;5033929;28;20473;-58
2024/03/05 04:39:57;;;;;;;0.40;0.40;;;;;;;6.46;100.00;98944.75;5033109;28;20065;-58
2024/03/05 04:42:25;;;;;;;0.38;0.38;;;;;;;6.37;100.00;98943.41;5033383;28;20271;-59
2024/03/05 04:44:53;;;;;;;0.30;0.30;;;;;;;6.42;100.00;98938.25;5026677;28;20057;-58
2024/03/05 04:47:21;;;;;;;0.30;0.30;;;;;;;6.41;100.00;98946.44;5030138;28;20515;-58
2024/03/05 04:49:49;;;;;;;0.40;0.40;;;;;;;6.32;100.00;98948.59;5031973;28;20052;-58
2024/03/05 04:52:19;;;;;;;0.40;0.40;;;;;;;6.36;100.00;98946.28;5033404;28;20140;-58
2024/03/05 04:54:47;;;;;;;0.40;0.40;;;;;;;6.35;100.00;98939.34;5033589;28;20071;-58
2024/03/05 04:57:15;;;;;;;0.40;0.40;;;;;;;6.29;100.00;98940.22;5034301;28;20124;-58
2024/03/05 04:59:46;;;;;;;0.30;0.30;;;;;;;6.37;100.00;98942.63;5033707;28;20455;-58
2024/03/05 05:02:15;;;;;;;0.40;0.40;;;;;;;6.23;100.00;98947.25;5033784;28;20048;-58
2024/03/05 05:04:42;;;;;;;0.40;0.40;;;;;;;6.24;100.00;98939.06;5033542;28;20033;-58
2024/03/05 05:07:09;;;;;;;0.38;0.38;;;;;;;6.35;100.00;98940.16;5037854;28;20048;-58
2024/03/05 05:09:37;;;;;;;0.40;0.40;;;;;;;6.37;100.00;98931.97;5037945;28;20044;-58
2024/03/05 05:12:04;;;;;;;0.30;0.30;;;;;;;6.38;100.00;98938.91;5033265;28;20400;-58
2024/03/05 05:14:33;;;;;;;0.32;0.32;;;;;;;6.28;100.00;98934.09;5034331;28;20056;-58
2024/03/05 05:17:00;;;;;;;0.30;0.30;;;;;;;6.42;100.00;98937.44;5038414;28;20095;-58
2024/03/05 05:19:29;;;;;;;0.30;0.30;;;;;;;6.47;100.00;98940.25;5029116;28;20476;-58
2024/03/05 05:21:56;;;;;;;0.40;0.40;;;;;;;6.48;100.00;98939.19;5036398;28;20381;-57
2024/03/05 05:24:23;;;;;;;0.35;0.35;;;;;;;6.47;100.00;98938.38;5032720;28;20068;-57
2024/03/05 05:26:50;;;;;;;0.40;0.40;;;;;;;6.33;100.00;98946.75;5037279;28;20107;-58
2024/03/05 05:29:18;;;;;;;0.40;0.40;;;;;;;6.29;100.00;98940.22;5029242;28;20129;-58
2024/03/05 05:31:47;;;;;;;0.32;0.32;;;;;;;6.10;100.00;98942.06;5027514;28;20143;-57
2024/03/05 05:34:14;;;;;;;0.30;0.30;;;;;;;5.96;100.00;98938.72;5035465;28;20495;-58
2024/03/05 05:36:41;;;;;;;0.40;0.40;;;;;;;6.11;100.00;98928.53;5029999;28;20562;-57
2024/03/05 05:39:09;;;;;;;0.40;0.40;;;;;;;6.17;100.00;98937.50;5034397;28;20076;-58
2024/03/05 05:41:38;;;;;;;0.40;0.40;;;;;;;6.17;100.00;98942.81;5037078;28;20073;-58
2024/03/05 05:44:05;;;;;;;0.40;0.40;;;;;;;6.32;100.00;98934.47;5029593;28;20056;-58
2024/03/05 05:46:33;;;;;;;0.38;0.38;;;;;;;6.29;100.00;98940.22;5029283;28;20040;-58
2024/03/05 05:49:05;;;;;;;0.30;0.30;;;;;;;6.25;100.00;98939.88;5029974;28;20339;-57
2024/03/05 05:51:32;;;;;;;0.25;0.25;;;;;;;6.29;100.00;98950.88;5029878;28;20049;-58
2024/03/05 05:54:00;;;;;;;0.35;0.35;;;;;;;6.36;100.00;98951.63;5032261;28;20411;-58
2024/03/05 05:56:27;;;;;;;0.35;0.35;;;;;;;6.41;100.00;98943.78;5034658;28;20040;-58
2024/03/05 05:58:55;;;;;;;0.40;0.40;;;;;;;6.45;100.00;98955.63;5035035;28;20445;-58
2024/03/05 06:01:23;;;;;;;0.30;0.30;;;;;;;6.27;100.00;98948.44;5028904;28;20048;-58
2024/03/05 06:03:51;;;;;;;0.30;0.30;;;;;;;6.19;100.00;98951.38;5027705;28;20495;-58
2024/03/05 06:06:20;;;;;;;0.30;0.30;;;;;;;6.46;100.00;98950.09;5031541;28;20048;-58
2024/03/05 06:08:47;;;;;;;0.32;0.32;;;;;;;6.25;100.00;98953.19;5030670;28;20037;-58
2024/03/05 06:11:14;;;;;;;0.40;0.40;;;;;;;6.34;100.00;98959.00;5020799;28;20037;-58
2024/03/05 06:13:43;;;;;;;0.40;0.40;;;;;;;6.48;100.00;98952.50;5028886;28;20043;-58
2024/03/05 06:16:11;;;;;;;0.30;0.30;;;;;;;6.28;100.00;98954.56;5030265;28;20053;-58
2024/03/05 06:18:40;;;;;;;0.30;0.30;;;;;;;6.46;100.00;98954.56;5031258;28;20523;-57
2024/03/05 06:21:08;;;;;;;0.30;0.30;;;;;;;6.35;100.00;98960.66;5028522;28;20677;-58
2024/03/05 06:23:37;;;;;;;0.50;0.50;;;;;;;6.40;100.00;98958.13;5038554;28;20049;-59
2024/03/05 06:26:08;;;;;;;0.40;0.40;;;;;;;6.51;100.00;98957.38;5032017;28;21357;-58
2024/03/05 06:28:37;;;;;;;;;;;;;;;6.48;100.00;98958.63;5026579;28;20488;-58
2024/03/05 06:31:05;;;;;;;0.35;0.35;;;;;;;6.45;100.00;98963.59;5037146;28;19979;-58
2024/03/05 06:33:32;;;;;;;0.28;0.28;;;;;;;6.42;100.00;98962.19;5034912;28;20213;-58
2024/03/05 06:36:03;;;;;;;0.35;0.35;;;;;;;6.35;100.00;98968.63;5030875;28;20131;-58
2024/03/05 06:38:31;;;;;;;0.30;0.30;;;;;;;6.37;100.00;98969.22;5026523;28;20037;-58
2024/03/05 06:41:00;;;;;;;0.40;0.40;;;;;;;6.56;100.00;98965.50;5026274;28;20049;-58
2024/03/05 06:43:32;;;;;;;0.30;0.30;;;;;;;6.50;100.00;98974.41;5029972;28;20125;-58
2024/03/05 06:46:02;;;;;;;0.30;0.30;;;;;;;6.55;100.00;98971.88;5038915;28;20040;-58
2024/03/05 06:48:30;;;;;;;0.40;0.40;;;;;;;6.56;100.00;98972.69;5029221;28;20104;-57
2024/03/05 06:51:04;;;;;;;0.30;0.30;;;;;;;6.55;100.00;98976.41;5025892;28;20060;-57
2024/03/05 06:59:03;;;;;;;0.40;0.40;;;;;;;6.59;100.00;98983.72;5034721;28;20518;-58
2024/03/05 07:01:31;;;;;;;0.30;0.30;;;;;;;6.54;100.00;98980.09;5022271;28;20076;-58
2024/03/05 07:03:59;;;;;;;0.40;0.40;;;;;;;6.41;100.00;98981.84;5036647;28;20052;-58
2024/03/05 07:06:26;;;;;;;0.30;0.30;;;;;;;6.53;100.00;98984.59;5029804;28;20419;-58
2024/03/05 07:08:54;;;;;;;0.32;0.32;;;;;;;6.53;100.00;98984.59;5030950;28;20055;-57
2024/03/05 07:11:26;;;;;;;0.30;0.30;;;;;;;6.52;100.00;98993.63;5028383;28;20115;-57
2024/03/05 07:13:55;;;;;;;0.40;0.40;;;;;;;6.61;100.00;98997.59;5032820;28;20055;-58
2024/03/05 07:16:23;;;;;;;0.40;0.40;;;;;;;6.65;100.00;98993.47;5027813;28;20064;-58
2024/03/05 07:18:54;;;;;;;0.40;0.40;;;;;;;6.71;100.00;99005.09;5031571;28;20115;-56
2024/03/05 07:21:22;;;;;;;0.40;0.40;;;;;;;6.80;100.00;98995.78;5024623;28;20048;-58
2024/03/05 07:23:50;;;;;;;0.40;0.40;;;;;;;6.75;100.00;98997.47;5033508;28;20424;-58
2024/03/05 07:26:17;;;;;;;0.50;0.50;;;;;;;6.78;100.00;98999.69;5029476;28;20049;-58
2024/03/05 07:28:46;;;;;;;0.20;0.20;;;;;;;6.91;100.00;99003.03;5032569;28;20038;-59
2024/03/05 07:31:14;;;;;;;0.35;0.35;;;;;;;7.00;100.00;99005.38;5025233;28;20137;-58
2024/03/05 07:33:41;;;;;;;0.30;0.30;;;;;;;7.06;100.00;99012.44;5037689;28;20060;-59
2024/03/05 07:36:09;;;;;;;0.30;0.30;;;;;;;7.18;100.00;99012.50;5032887;28;20098;-59
2024/03/05 07:38:36;;;;;;;0.40;0.40;;;;;;;7.04;100.00;99012.69;5031682;28;20123;-59
2024/03/05 07:41:05;;;;;;;0.20;0.20;;;;;;;6.85;100.00;99008.41;5035121;28;20061;-58
2024/03/05 07:43:32;;;;;;;0.30;0.30;;;;;;;7.00;100.00;99002.72;5036027;28;20387;-58
2024/03/05 07:46:01;;;;;;;0.30;0.30;;;;;;;6.72;100.00;99004.06;5031205;28;20049;-59
2024/03/05 07:48:28;;;;;;;0.30;0.30;;;;;;;6.70;100.00;99004.28;5032376;28;20434;-59
2024/03/05 07:50:55;;;;;;;0.40;0.40;;;;;;;6.57;100.00;99000.97;5029185;28;20052;-59
2024/03/05 07:53:24;;;;;;;0.25;0.25;;;;;;;6.53;100.00;99011.22;5032625;28;20038;-59
2024/03/05 07:55:51;;;;;;;0.32;0.32;;;;;;;6.39;100.00;99005.25;5033036;28;20053;-59
2024/03/05 07:58:18;;;;;;;0.40;0.40;;;;;;;6.44;100.00;99012.53;5027689;28;20492;-59
2024/03/05 08:00:45;;;;;;;0.35;0.35;;;;;;;6.48;100.00;99019.06;5036296;28;20127;-58
2024/03/05 08:03:15;;;;;;;0.38;0.38;;;;;;;6.56;100.00;99010.78;5026902;28;20049;-59
2024/03/05 08:05:44;;;;;;;0.40;0.40;;;;;;;6.65;100.00;99011.31;5030410;28;20049;-59
2024/03/05 08:08:11;;;;;;;0.40;0.40;;;;;;;6.60;100.00;99014.63;5024659;28;20060;-59
2024/03/05 08:10:38;;;;;;;0.40;0.40;;;;;;;6.60;100.00;99021.81;5030978;28;20052;-59
2024/03/05 08:13:07;;;;;;;0.32;0.32;;;;;;;6.47;100.00;99012.13;5030528;28;20041;-58
2024/03/05 08:15:34;;;;;;;0.40;0.40;;;;;;;6.42;100.00;99025.28;5029866;28;20244;-58
2024/03/05 08:18:01;;;;;;;0.32;0.32;;;;;;;6.45;100.00;99024.84;5027579;28;20427;-58
2024/03/05 08:20:30;;;;;;;0.47;0.47;;;;;;;6.61;100.00;99029.56;5027107;28;20134;-57
2024/03/05 08:22:57;;;;;;;0.40;0.40;;;;;;;6.56;100.00;99025.94;5033925;28;20045;-58
2024/03/05 08:25:25;;;;;;;0.40;0.40;;;;;;;6.68;100.00;99019.66;5035595;28;20029;-58
2024/03/05 08:27:54;;;;;;;0.30;0.30;;;;;;;6.66;100.00;99019.09;5037971;28;20882;-58
2024/03/05 08:30:25;;;;;;;0.30;0.30;;;;;;;6.78;100.00;99021.81;5030443;28;20050;-59
2024/03/05 08:32:55;;;;;;;0.50;0.50;;;;;;;6.67;100.00;99023.38;5033101;28;20161;-59
2024/03/05 08:35:23;;;;;;;0.43;0.43;;;;;;;6.55;100.00;99030.47;5037762;28;20064;-59
2024/03/05 08:37:55;;;;;;;0.32;0.32;;;;;;;6.70;100.00;99030.91;5035615;28;20411;-59
2024/03/05 08:40:22;;;;;;;0.40;0.40;;;;;;;6.65;100.00;99027.28;5035771;28;20171;-59
2024/03/05 08:42:51;;;;;;;0.30;0.30;;;;;;;6.73;100.00;99026.19;5034301;28;20041;-59
2024/03/05 08:45:19;;;;;;;0.30;0.30;;;;;;;6.85;100.00;99035.06;5036853;28;20102;-59
2024/03/05 08:47:48;;;;;;;0.40;0.40;;;;;;;6.76;100.00;99036.38;5031770;28;20053;-59
2024/03/05 08:50:15;;;;;;;0.32;0.32;;;;;;;6.63;100.00;99032.84;5031690;28;20041;-59
2024/03/05 08:52:43;;;;;;;0.40;0.40;;;;;;;6.72;100.00;99035.22;5037072;28;20068;-59
2024/03/05 08:55:13;;;;;;;0.40;0.40;;;;;;;6.70;100.00;99028.25;5035780;28;20076;-59
2024/03/05 08:57:40;;;;;;;0.30;0.30;;;;;;;6.69;100.00;99031.97;5035399;28;20048;-59
2024/03/05 09:00:08;;;;;;;0.38;0.38;;;;;;;6.95;100.00;99024.69;5028737;28;20041;-59
2024/03/05 09:02:35;;;;;;;0.40;0.40;;;;;;;6.82;100.00;99025.66;5028887;28;20037;-59
2024/03/05 09:05:04;;;;;;;0.40;0.40;;;;;;;6.91;100.00;99023.50;5036732;28;20504;-59
2024/03/05 09:07:31;;;;;;;0.40;0.40;;;;;;;7.16;100.00;99030.59;5030878;28;20047;-59
2024/03/05 09:09:59;;;;;;;0.32;0.32;;;;;;;7.06;100.00;99031.94;5029882;28;20041;-59
2024/03/05 09:12:30;;;;;;;0.40;0.40;;;;;;;6.99;100.00;99025.88;5036125;28;20125;-58
2024/03/05 09:14:59;;;;;;;0.32;0.32;;;;;;;7.07;100.00;99028.22;5033747;28;20041;-58
2024/03/05 09:17:29;;;;;;;0.38;0.38;;;;;;;6.98;100.00;99037.56;5036895;28;20041;-58
2024/03/05 09:19:56;;;;;;;0.30;0.30;;;;;;;7.02;100.00;99033.41;5027398;28;20140;-59
2024/03/05 09:22:23;;;;;;;0.28;0.28;;;;;;;6.96;100.00;99036.97;5031679;28;20549;-58
2024/03/05 09:24:51;;;;;;;0.30;0.30;;;;;;;6.90;100.00;99045.88;5029452;28;20041;-58
2024/03/05 09:27:19;;;;;;;0.30;0.30;;;;;;;7.00;100.00;99040.81;5034611;28;20129;-58
2024/03/05 09:29:47;;;;;;;0.30;0.30;;;;;;;7.05;100.00;99043.63;5033752;28;20168;-58
2024/03/05 09:32:16;;;;;;;0.32;0.32;;;;;;;7.10;100.00;99046.44;5028349;28;20052;-58
2024/03/05 09:34:44;;;;;;;0.30;0.30;;;;;;;7.10;100.00;99043.78;5036757;28;20050;-59
2024/03/05 09:37:11;;;;;;;0.30;0.30;;;;;;;7.27;100.00;99048.50;5032900;28;20041;-59
2024/03/05 09:39:39;;;;;;;0.20;0.20;;;;;;;7.21;100.00;99054.72;5033638;28;20106;-58
2024/03/05 09:42:09;;;;;;;0.30;0.30;;;;;;;7.23;100.00;99061.44;5031487;28;20037;-58
2024/03/05 09:44:37;;;;;;;0.30;0.30;;;;;;;7.30;100.00;99056.84;5036600;28;20132;-58
2024/03/05 09:47:06;;;;;;;0.30;0.30;;;;;;;7.10;100.00;99065.09;5037454;28;20128;-58
2024/03/05 09:49:33;;;;;;;0.30;0.30;;;;;;;7.05;100.00;99067.59;5028258;28;20758;-58
2024/03/05 09:52:03;;;;;;;0.40;0.40;;;;;;;7.10;100.00;99064.28;5029568;28;20103;-58
2024/03/05 09:54:30;;;;;;;0.40;0.40;;;;;;;7.33;100.00;99060.91;5031687;28;20041;-58
2024/03/05 09:56:58;;;;;;;0.30;0.30;;;;;;;7.48;100.00;99069.31;5030933;28;20077;-58
2024/03/05 09:59:28;;;;;;;0.30;0.30;;;;;;;7.52;100.00;99067.84;5027364;28;20044;-58
2024/03/05 10:01:55;;;;;;;0.30;0.30;;;;;;;7.51;100.00;99066.22;5033700;28;20053;-59
2024/03/05 10:04:26;;;;;;;0.30;0.30;;;;;;;7.57;100.00;99075.97;5029085;28;20135;-59
2024/03/05 10:06:54;;;;;;;0.30;0.30;;;;;;;7.44;100.00;99069.97;5027702;28;20044;-58
2024/03/05 10:09:21;;;;;;;0.40;0.40;;;;;;;7.67;100.00;99077.28;5033130;28;20045;-61
2024/03/05 10:11:48;;;;;;;0.30;0.30;;;;;;;7.75;100.00;99072.44;5033688;28;20430;-58
2024/03/05 10:14:18;;;;;;;0.20;0.20;;;;;;;7.87;100.00;99077.81;5033994;28;20550;-58
2024/03/05 10:16:51;;;;;;;0.38;0.38;;;;;;;7.67;100.00;99080.75;5034060;28;20049;-58
2024/03/05 10:19:18;;;;;;;0.30;0.30;;;;;;;7.64;100.00;99075.88;5031202;28;20052;-58
2024/03/05 10:21:47;;;;;;;0.25;0.25;;;;;;;7.76;100.00;99078.56;5040646;28;20445;-58
2024/03/05 10:24:15;;;;;;;0.30;0.30;;;;;;;7.66;100.00;99088.97;5025180;28;20040;-58
2024/03/05 10:26:46;;;;;;;0.20;0.20;;;;;;;7.60;100.00;99081.91;5030047;28;20407;-58
2024/03/05 10:29:13;;;;;;;0.30;0.30;;;;;;;7.59;100.00;99077.59;5032167;28;20053;-58
2024/03/05 10:31:42;;;;;;;0.40;0.40;;;;;;;7.26;100.00;99078.84;5021585;28;20213;-58
2024/03/05 10:34:14;;;;;;;0.30;0.30;;;;;;;7.23;100.00;99084.63;5036290;28;20057;-59
2024/03/05 10:36:42;;;;;;;0.30;0.30;;;;;;;7.28;100.00;99082.09;5029172;28;20045;-59
2024/03/05 10:39:14;;;;;;;0.30;0.30;;;;;;;7.26;100.00;99085.00;5027500;28;20042;-58
2024/03/05 10:41:42;;;;;;;0.40;0.40;;;;;;;7.22;100.00;99088.34;5030258;28;20775;-58
2024/03/05 10:44:09;;;;;;;0.40;0.40;;;;;;;7.37;100.00;99080.75;5036677;28;20053;-58
2024/03/05 10:46:37;;;;;;;0.35;0.35;;;;;;;7.30;100.00;99085.34;5033042;28;20045;-58
2024/03/05 10:49:08;;;;;;;0.30;0.30;;;;;;;7.36;100.00;99079.13;5031592;28;20076;-58
2024/03/05 10:51:38;;;;;;;0.30;0.30;;;;;;;7.31;100.00;99077.16;5022079;28;20064;-58
2024/03/05 10:54:05;;;;;;;0.37;0.37;;;;;;;7.45;100.00;99082.28;5036002;28;20124;-58
2024/03/05 10:56:35;;;;;;;0.40;0.40;;;;;;;7.60;100.00;99084.56;5028603;28;20148;-58
2024/03/05 10:59:30;;;;;;;0.40;0.40;;;;;;;7.63;100.00;99090.25;5033759;28;20127;-58
2024/03/05 11:01:58;;;;;;;0.40;0.40;;;;;;;7.77;100.00;99085.56;5030220;28;20079;-58
2024/03/05 11:04:27;;;;;;;0.30;0.30;;;;;;;8.30;100.00;99087.38;5029841;28;20048;-58
2024/03/05 11:06:55;;;;;;;0.40;0.40;;;;;;;8.28;100.00;99081.47;5033147;28;20899;-58
2024/03/05 11:09:23;;;;;;;0.30;0.30;;;;;;;8.62;100.00;99087.09;5027986;28;20723;-58
2024/03/05 11:11:56;;;;;;;0.20;0.20;;;;;;;8.55;100.00;99087.19;5032117;28;20041;-58
2024/03/05 11:14:24;;;;;;;0.40;0.40;;;;;;;8.80;100.00;99083.47;5031969;28;20423;-58
2024/03/05 11:16:57;;;;;;;0.40;0.40;;;;;;;8.71;100.00;99076.84;5034280;28;20056;-58
2024/03/05 11:19:25;;;;;;;0.32;0.32;;;;;;;8.56;100.00;99077.31;5025754;28;20448;-58
2024/03/05 11:21:53;;;;;;;0.30;0.30;;;;;;;8.89;100.00;99078.59;5046691;28;20482;-58
2024/03/05 11:24:21;;;;;;;0.30;0.30;;;;;;;8.62;100.00;99082.56;5030767;28;20037;-58
2024/03/05 11:27:11;;;;;;;0.20;0.20;;;;;;;8.92;100.00;99078.13;5034287;28;20052;-57
2024/03/05 11:29:41;;;;;;;0.30;0.30;;;;;;;8.63;100.00;99078.81;5034749;28;20107;-57
2024/03/05 11:32:11;;;;;;;0.28;0.28;;;;;;;8.97;100.00;99078.22;5024959;28;20096;-58
2024/03/05 11:34:44;;;;;;;;;;;;;;;9.10;100.00;99077.16;5033812;28;20144;-58
2024/03/05 11:37:12;;;;;;;0.30;0.30;;;;;;;9.38;100.00;99084.38;5030920;28;20018;-58
2024/03/05 11:39:43;;;;;;;0.30;0.30;;;;;;;9.65;100.00;99082.75;5034496;28;20091;-58
2024/03/05 11:42:19;;;;;;;0.20;0.20;;;;;;;9.85;100.00;99084.19;5033094;28;20052;-58
2024/03/05 11:44:53;;;;;;;0.30;0.30;;;;;;;9.21;93.18;99085.16;5025527;28;20041;-58